createdAt,value
2023-03-29T00:00:14.272Z,95.80
2023-03-29T00:02:43.752Z,95.60
2023-03-29T00:05:13.322Z,95.40
2023-03-29T00:07:42.591Z,95.50
2023-03-29T00:10:14.376Z,95.60
2023-03-29T00:12:42.932Z,95.90
2023-03-29T00:15:12.196Z,96.40
2023-03-29T00:17:40.788Z,96.60
2023-03-29T00:20:10.506Z,96.90
2023-03-29T00:22:42.121Z,96.70
2023-03-29T00:25:13.287Z,96.20
2023-03-29T00:27:42.281Z,96.10
2023-03-29T00:30:11.645Z,95.80
2023-03-29T00:32:40.246Z,95.30
2023-03-29T00:35:09.920Z,95.40
2023-03-29T00:37:39.731Z,95.50
2023-03-29T00:40:11.016Z,96.20
2023-03-29T00:42:44.812Z,96.40
2023-03-29T00:45:19.894Z,96.70
2023-03-29T00:47:51.493Z,96.60
2023-03-29T00:50:25.958Z,96.50
2023-03-29T00:53:00.957Z,96.60
2023-03-29T00:55:32.524Z,96.50
2023-03-29T00:58:04.498Z,96.80
2023-03-29T01:00:36.730Z,97.10
2023-03-29T01:03:13.934Z,97.30
2023-03-29T01:05:47.721Z,97.40
2023-03-29T01:08:21.700Z,97.50
2023-03-29T01:10:54.068Z,97.70
2023-03-29T01:13:30.261Z,98.10
2023-03-29T01:16:00.056Z,98.10
2023-03-29T01:18:31.467Z,98.50
2023-03-29T01:21:12.615Z,98.50
2023-03-29T01:23:58.355Z,99.20
2023-03-29T01:26:34.062Z,98.90
2023-03-29T01:29:08.125Z,98.90
2023-03-29T01:31:40.673Z,98.50
2023-03-29T01:34:13.851Z,98.50
2023-03-29T01:36:49.454Z,98.70
2023-03-29T01:39:19.123Z,98.70
2023-03-29T01:41:56.046Z,98.80
2023-03-29T01:44:32.855Z,98.90
2023-03-29T01:47:09.877Z,99.40
2023-03-29T01:49:43.340Z,99.20
2023-03-29T01:52:17.059Z,99.30
2023-03-29T01:54:54.840Z,99.30
2023-03-29T01:57:25.569Z,99.60
2023-03-29T01:59:57.825Z,99.60
2023-03-29T02:02:29.850Z,99.90
2023-03-29T02:04:59.404Z,99.90
2023-03-29T02:07:32.284Z,99.90
2023-03-29T02:10:02.158Z,99.90
2023-03-29T02:12:30.713Z,99.90
2023-03-29T02:15:01.080Z,99.90
2023-03-29T02:17:31.911Z,99.90
2023-03-29T02:20:09.672Z,99.90
2023-03-29T02:22:42.586Z,99.90
2023-03-29T02:25:12.947Z,99.90
2023-03-29T02:27:41.719Z,99.90
2023-03-29T02:30:14.629Z,99.90
2023-03-29T02:32:53.545Z,99.90
2023-03-29T02:35:34.493Z,99.90
2023-03-29T02:38:05.555Z,99.90
2023-03-29T02:40:35.368Z,99.90
2023-03-29T02:43:07.889Z,99.90
2023-03-29T02:45:41.927Z,99.90
2023-03-29T02:48:14.727Z,99.90
2023-03-29T02:50:46.713Z,99.90
2023-03-29T02:53:18.896Z,99.90
2023-03-29T02:55:50.749Z,99.90
2023-03-29T02:58:20.683Z,99.90
2023-03-29T03:00:50.769Z,99.90
2023-03-29T03:03:19.324Z,99.90
2023-03-29T03:05:51.209Z,99.90
2023-03-29T03:08:19.940Z,99.90
2023-03-29T03:10:49.029Z,99.90
2023-03-29T03:13:17.536Z,99.90
2023-03-29T03:15:49.230Z,99.90
2023-03-29T03:18:19.411Z,99.90
2023-03-29T03:20:57.080Z,99.90
2023-03-29T03:23:26.128Z,99.90
2023-03-29T03:25:55.380Z,99.90
2023-03-29T03:28:27.460Z,99.90
2023-03-29T03:30:57.533Z,99.90
2023-03-29T03:34:05.950Z,99.90
2023-03-29T03:36:39.345Z,99.90
2023-03-29T03:39:08.013Z,99.90
2023-03-29T03:41:36.862Z,99.90
2023-03-29T03:44:05.394Z,99.90
2023-03-29T03:46:34.041Z,99.90
2023-03-29T03:49:02.999Z,99.90
2023-03-29T03:51:36.113Z,99.90
2023-03-29T03:54:04.983Z,99.90
2023-03-29T03:56:34.414Z,99.90
2023-03-29T03:59:07.157Z,99.90
2023-03-29T04:01:45.006Z,99.90
2023-03-29T04:04:20.733Z,99.90
2023-03-29T04:07:14.377Z,99.90
2023-03-29T04:09:57.811Z,99.90
2023-03-29T04:12:48.962Z,99.90
2023-03-29T04:15:17.917Z,99.90
2023-03-29T04:17:53.575Z,99.90
2023-03-29T04:20:28.600Z,99.90
2023-03-29T04:22:59.295Z,99.90
2023-03-29T04:25:28.745Z,99.90
2023-03-29T04:27:59.949Z,99.90
2023-03-29T04:31:04.246Z,99.90
2023-03-29T04:33:46.882Z,99.90
2023-03-29T04:36:16.955Z,99.90
2023-03-29T04:38:48.118Z,99.90
2023-03-29T04:41:18.177Z,99.90
2023-03-29T04:44:03.882Z,99.90
2023-03-29T04:46:33.434Z,99.90
2023-03-29T04:49:20.559Z,99.90
2023-03-29T04:51:53.350Z,99.90
2023-03-29T04:54:27.401Z,99.90
2023-03-29T04:57:18.939Z,99.90
2023-03-29T04:59:56.945Z,99.90
2023-03-29T05:02:46.250Z,99.90
2023-03-29T05:05:16.532Z,99.90
2023-03-29T05:07:46.867Z,99.90
2023-03-29T05:10:18.503Z,99.90
2023-03-29T05:12:47.022Z,99.90
2023-03-29T05:15:15.731Z,99.90
2023-03-29T05:17:44.257Z,99.90
2023-03-29T05:20:15.228Z,99.90
2023-03-29T05:22:47.176Z,99.90
2023-03-29T05:25:30.371Z,99.90
2023-03-29T05:28:00.378Z,99.90
2023-03-29T05:30:29.261Z,99.90
2023-03-29T05:33:15.389Z,99.90
2023-03-29T05:35:43.989Z,99.90
2023-03-29T05:38:13.725Z,99.90
2023-03-29T05:40:43.874Z,99.90
2023-03-29T05:43:29.877Z,99.90
2023-03-29T05:45:58.585Z,99.90
2023-03-29T05:48:28.798Z,99.90
2023-03-29T05:50:57.882Z,99.90
2023-03-29T05:53:28.399Z,99.90
2023-03-29T05:55:58.780Z,99.90
2023-03-29T05:58:30.822Z,99.90
2023-03-29T06:01:00.699Z,99.90
2023-03-29T06:03:52.640Z,99.90
2023-03-29T06:06:25.427Z,99.90
2023-03-29T06:08:54.160Z,99.90
2023-03-29T06:11:29.706Z,99.90
2023-03-29T06:14:24.989Z,99.90
2023-03-29T06:17:07.053Z,99.90
2023-03-29T06:19:35.596Z,99.90
2023-03-29T06:22:04.410Z,99.90
2023-03-29T06:24:35.372Z,99.90
2023-03-29T06:27:11.931Z,97.00
2023-03-29T06:29:40.430Z,95.60
2023-03-29T06:32:11.177Z,91.30
2023-03-29T06:34:51.822Z,79.70
2023-03-29T06:37:27.566Z,73.50
2023-03-29T06:40:21.312Z,63.90
2023-03-29T06:42:57.845Z,59.20
2023-03-29T06:45:49.026Z,54.50
2023-03-29T06:48:27.364Z,54.20
2023-03-29T06:50:56.502Z,52.20
2023-03-29T06:53:28.210Z,52.10
2023-03-29T06:56:05.390Z,49.70
2023-03-29T06:58:47.045Z,48.00
2023-03-29T07:01:35.940Z,47.70
2023-03-29T07:04:12.228Z,46.30
2023-03-29T07:07:19.774Z,45.30
2023-03-29T07:09:54.349Z,44.30
2023-03-29T07:12:46.691Z,45.50
2023-03-29T07:15:18.994Z,46.70
2023-03-29T07:18:09.548Z,46.00
2023-03-29T07:20:38.977Z,45.30
2023-03-29T07:23:09.988Z,43.50
2023-03-29T07:25:38.763Z,43.90
2023-03-29T07:28:07.782Z,43.00
2023-03-29T07:30:38.384Z,42.80
2023-03-29T07:33:15.502Z,42.90
2023-03-29T07:35:52.553Z,41.30
2023-03-29T07:38:21.371Z,41.40
2023-03-29T07:40:56.514Z,41.50
2023-03-29T07:43:44.070Z,40.60
2023-03-29T07:46:15.894Z,40.30
2023-03-29T07:48:45.607Z,39.20
2023-03-29T07:51:16.568Z,37.70
2023-03-29T07:53:55.747Z,36.80
2023-03-29T07:56:35.052Z,36.20
2023-03-29T07:59:23.780Z,36.10
2023-03-29T08:02:06.891Z,35.60
2023-03-29T08:04:41.575Z,35.70
2023-03-29T08:07:21.208Z,35.00
2023-03-29T08:10:02.351Z,34.70
2023-03-29T08:12:44.855Z,34.70
2023-03-29T08:15:14.396Z,34.80
2023-03-29T08:17:45.613Z,33.20
2023-03-29T08:20:16.303Z,33.40
2023-03-29T08:22:48.833Z,34.50
2023-03-29T08:25:23.040Z,34.10
2023-03-29T08:27:54.680Z,33.20
2023-03-29T08:30:46.432Z,33.50
2023-03-29T08:33:16.793Z,34.60
2023-03-29T08:35:47.578Z,36.30
2023-03-29T08:38:27.167Z,37.30
2023-03-29T08:40:56.130Z,37.10
2023-03-29T08:43:59.718Z,38.50
2023-03-29T08:46:45.401Z,39.40
2023-03-29T08:49:53.104Z,39.40
2023-03-29T08:52:35.718Z,40.10
2023-03-29T08:55:23.609Z,40.00
2023-03-29T08:58:17.237Z,40.80
2023-03-29T09:00:49.717Z,41.60
2023-03-29T09:03:22.797Z,41.90
2023-03-29T09:05:58.054Z,40.90
2023-03-29T09:08:28.620Z,40.70
2023-03-29T09:11:20.622Z,40.80
2023-03-29T09:14:00.429Z,40.90
2023-03-29T09:16:34.916Z,40.50
2023-03-29T09:19:11.663Z,40.30
2023-03-29T09:21:50.034Z,40.90
2023-03-29T09:24:49.615Z,40.80
2023-03-29T09:27:35.950Z,40.80
2023-03-29T09:30:25.823Z,41.00
2023-03-29T09:33:13.698Z,41.90
2023-03-29T09:36:04.335Z,42.30
2023-03-29T09:38:40.684Z,42.50
2023-03-29T09:41:21.353Z,42.30
2023-03-29T09:43:54.968Z,42.50
2023-03-29T09:46:30.461Z,43.30
2023-03-29T09:48:59.450Z,43.70
2023-03-29T09:51:31.078Z,43.40
2023-03-29T09:54:01.334Z,44.50
2023-03-29T09:56:52.673Z,44.80
2023-03-29T09:59:25.585Z,44.40
2023-03-29T10:01:54.378Z,44.30
2023-03-29T10:04:23.102Z,44.40
2023-03-29T10:07:00.055Z,45.00
2023-03-29T10:09:32.483Z,45.70
2023-03-29T10:12:15.328Z,46.20
2023-03-29T10:14:46.512Z,46.40
2023-03-29T10:17:19.964Z,45.70
2023-03-29T10:19:52.612Z,46.50
2023-03-29T10:22:24.523Z,46.30
2023-03-29T10:24:56.012Z,46.30
2023-03-29T10:27:27.724Z,46.50
2023-03-29T10:29:58.395Z,46.60
2023-03-29T10:32:32.761Z,46.20
2023-03-29T10:35:05.350Z,46.40
2023-03-29T10:37:33.967Z,47.00
2023-03-29T10:40:08.574Z,47.50
2023-03-29T10:42:37.454Z,47.50
2023-03-29T10:45:20.289Z,47.50
2023-03-29T10:47:50.010Z,47.50
2023-03-29T10:50:18.801Z,47.20
2023-03-29T10:52:47.278Z,47.30
2023-03-29T10:55:18.744Z,47.90
2023-03-29T10:57:57.128Z,48.50
2023-03-29T11:00:33.439Z,48.40
2023-03-29T11:03:28.675Z,47.90
2023-03-29T11:06:04.263Z,49.50
2023-03-29T11:08:43.243Z,49.70
2023-03-29T11:11:31.250Z,49.50
2023-03-29T11:14:08.692Z,50.00
2023-03-29T11:16:46.144Z,50.90
2023-03-29T11:19:47.171Z,50.80
2023-03-29T11:22:21.390Z,50.90
2023-03-29T11:25:06.024Z,50.30
2023-03-29T11:27:41.124Z,50.30
2023-03-29T11:30:13.293Z,51.00
2023-03-29T11:32:52.413Z,51.40
2023-03-29T11:35:33.473Z,51.80
2023-03-29T11:38:11.094Z,52.10
2023-03-29T11:40:51.501Z,52.80
2023-03-29T11:43:27.472Z,52.70
2023-03-29T11:46:03.974Z,52.90
2023-03-29T11:48:37.054Z,53.00
2023-03-29T11:51:12.313Z,53.40
2023-03-29T11:53:47.566Z,53.00
2023-03-29T11:56:29.447Z,53.50
2023-03-29T11:59:07.937Z,54.60
2023-03-29T12:01:44.598Z,54.80
2023-03-29T12:04:22.616Z,54.80
2023-03-29T12:06:57.106Z,54.40
2023-03-29T12:09:32.545Z,54.50
2023-03-29T12:12:10.085Z,54.70
2023-03-29T12:14:54.285Z,54.20
2023-03-29T12:17:29.987Z,54.20
2023-03-29T12:20:06.949Z,54.30
2023-03-29T12:22:39.365Z,54.60
2023-03-29T12:25:14.646Z,54.40
2023-03-29T12:27:54.662Z,54.50
2023-03-29T12:30:39.843Z,55.10
2023-03-29T12:33:26.254Z,55.40
2023-03-29T12:36:31.678Z,55.20
2023-03-29T12:39:26.867Z,55.10
2023-03-29T12:42:17.211Z,55.80
2023-03-29T12:45:22.757Z,56.20
2023-03-29T12:47:53.338Z,56.20
2023-03-29T12:50:33.302Z,57.20
2023-03-29T12:53:07.554Z,56.70
2023-03-29T12:55:49.912Z,56.80
2023-03-29T12:58:44.608Z,57.10
2023-03-29T13:01:26.682Z,57.70
2023-03-29T13:04:14.846Z,57.60
2023-03-29T13:07:03.042Z,57.70
2023-03-29T13:09:35.658Z,57.40
2023-03-29T13:12:24.098Z,57.20
2023-03-29T13:14:54.896Z,57.40
2023-03-29T13:17:32.613Z,58.50
2023-03-29T13:20:30.770Z,59.30
2023-03-29T13:23:11.742Z,59.50
2023-03-29T13:26:05.517Z,59.80
2023-03-29T13:28:43.251Z,61.50
2023-03-29T13:31:28.598Z,61.70
2023-03-29T13:34:05.567Z,62.40
2023-03-29T13:36:47.337Z,63.20
2023-03-29T13:39:20.537Z,63.30
2023-03-29T13:41:51.792Z,63.90
2023-03-29T13:44:29.874Z,62.90
2023-03-29T13:47:13.422Z,63.40
2023-03-29T13:49:45.479Z,63.20
2023-03-29T13:52:20.240Z,63.40
2023-03-29T13:54:54.991Z,63.60
2023-03-29T13:57:26.820Z,64.30
2023-03-29T14:00:01.445Z,63.90
2023-03-29T14:02:46.605Z,63.60
2023-03-29T14:05:19.933Z,63.80
2023-03-29T14:07:53.283Z,64.80
2023-03-29T14:10:27.310Z,64.40
2023-03-29T14:12:57.531Z,65.30
2023-03-29T14:15:46.458Z,65.00
2023-03-29T14:18:18.158Z,65.10
2023-03-29T14:20:49.161Z,64.80
2023-03-29T14:23:22.695Z,64.90
2023-03-29T14:25:51.501Z,64.80
2023-03-29T14:28:24.322Z,65.10
2023-03-29T14:30:53.682Z,64.40
2023-03-29T14:33:27.422Z,65.40
2023-03-29T14:35:56.919Z,66.10
2023-03-29T14:38:27.895Z,66.40
2023-03-29T14:41:00.906Z,67.00
2023-03-29T14:43:32.209Z,66.70
2023-03-29T14:46:04.098Z,66.80
2023-03-29T14:48:33.811Z,66.60
2023-03-29T14:51:02.974Z,67.30
2023-03-29T14:53:34.567Z,67.90
2023-03-29T14:56:03.510Z,67.80
2023-03-29T14:58:35.100Z,67.80
2023-03-29T15:01:07.950Z,67.90
2023-03-29T15:03:44.135Z,68.90
2023-03-29T15:06:15.064Z,69.40
2023-03-29T15:08:57.962Z,69.40
2023-03-29T15:11:34.155Z,69.70
2023-03-29T15:14:07.729Z,70.90
2023-03-29T15:16:39.930Z,71.50
2023-03-29T15:19:08.626Z,72.20
2023-03-29T15:21:37.415Z,71.80
2023-03-29T15:24:19.468Z,72.00
2023-03-29T15:27:01.353Z,73.00
2023-03-29T15:29:37.094Z,74.10
2023-03-29T15:32:06.052Z,74.20
2023-03-29T15:34:35.391Z,73.90
2023-03-29T15:37:04.177Z,74.30
2023-03-29T15:39:35.040Z,74.70
2023-03-29T15:42:04.139Z,75.40
2023-03-29T15:44:35.645Z,75.70
2023-03-29T15:47:05.361Z,75.60
2023-03-29T15:49:34.640Z,76.60
2023-03-29T15:52:04.085Z,77.20
2023-03-29T15:54:35.052Z,77.90
2023-03-29T15:57:07.339Z,78.70
2023-03-29T15:59:37.120Z,78.30
2023-03-29T16:02:07.854Z,78.40
2023-03-29T16:04:36.575Z,79.00
2023-03-29T16:07:12.157Z,79.60
2023-03-29T16:09:42.366Z,79.70
2023-03-29T16:12:11.417Z,80.30
2023-03-29T16:14:42.977Z,81.20
2023-03-29T16:17:12.428Z,81.70
2023-03-29T16:19:40.911Z,83.00
2023-03-29T16:22:09.533Z,82.80
2023-03-29T16:24:38.503Z,82.70
2023-03-29T16:27:08.549Z,83.40
2023-03-29T16:29:36.994Z,84.50
2023-03-29T16:32:06.895Z,85.30
2023-03-29T16:34:36.019Z,86.10
2023-03-29T16:37:04.922Z,86.90
2023-03-29T16:39:33.394Z,87.20
2023-03-29T16:42:01.960Z,87.20
2023-03-29T16:44:31.874Z,87.80
2023-03-29T16:47:00.758Z,88.50
2023-03-29T16:49:29.403Z,89.50
2023-03-29T16:51:59.898Z,90.20
2023-03-29T16:54:29.795Z,90.30
2023-03-29T16:56:58.453Z,90.50
2023-03-29T16:59:27.300Z,92.70
2023-03-29T17:01:57.413Z,94.70
2023-03-29T17:04:26.343Z,95.60
2023-03-29T17:06:54.948Z,96.40
2023-03-29T17:09:23.359Z,97.70
2023-03-29T17:11:51.940Z,98.60
2023-03-29T17:14:20.564Z,98.90
2023-03-29T17:16:49.155Z,99.60
2023-03-29T17:19:19.014Z,99.90
2023-03-29T17:21:47.571Z,99.90
2023-03-29T17:24:16.065Z,99.90
2023-03-29T17:26:45.900Z,99.90
2023-03-29T17:29:14.451Z,99.90
2023-03-29T17:31:47.702Z,99.90
2023-03-29T17:34:16.570Z,99.90
2023-03-29T17:36:46.962Z,99.90
2023-03-29T17:39:18.996Z,99.90
2023-03-29T17:41:48.075Z,99.90
2023-03-29T17:44:16.535Z,99.90
2023-03-29T17:46:45.151Z,99.90
2023-03-29T17:49:13.794Z,99.90
2023-03-29T17:51:42.489Z,99.90
2023-03-29T17:54:12.271Z,99.90
2023-03-29T17:56:40.908Z,99.90
2023-03-29T17:59:09.513Z,99.90
2023-03-29T18:01:39.460Z,99.90
2023-03-29T18:04:08.097Z,99.90
2023-03-29T18:06:36.616Z,99.90
2023-03-29T18:09:05.689Z,99.90
2023-03-29T18:11:36.571Z,99.90
2023-03-29T18:14:05.435Z,99.90
2023-03-29T18:16:34.103Z,99.90
2023-03-29T18:19:02.598Z,99.90
2023-03-29T18:21:31.256Z,99.90
2023-03-29T18:23:59.937Z,99.90
2023-03-29T18:26:28.622Z,99.90
2023-03-29T18:28:58.522Z,99.90
2023-03-29T18:31:28.130Z,99.90
2023-03-29T18:33:56.655Z,99.90
2023-03-29T18:36:26.504Z,99.90
2023-03-29T18:39:13.671Z,99.90
2023-03-29T18:41:42.178Z,99.90
2023-03-29T18:44:14.106Z,99.90
2023-03-29T18:46:42.713Z,99.90
2023-03-29T18:49:13.238Z,99.90
2023-03-29T18:51:42.191Z,99.90
2023-03-29T18:54:10.774Z,99.90
2023-03-29T18:56:39.276Z,99.90
2023-03-29T18:59:07.835Z,99.90
2023-03-29T19:01:37.779Z,99.90
2023-03-29T19:04:07.177Z,99.90
2023-03-29T19:06:36.798Z,99.90
2023-03-29T19:09:05.512Z,99.90
2023-03-29T19:11:36.026Z,99.90
2023-03-29T19:14:08.405Z,99.90
2023-03-29T19:16:40.886Z,99.90
2023-03-29T19:19:16.654Z,99.90
2023-03-29T19:21:47.013Z,99.90
2023-03-29T19:24:15.854Z,99.90
2023-03-29T19:26:44.878Z,99.90
2023-03-29T19:29:13.786Z,99.90
2023-03-29T19:31:43.868Z,99.90
2023-03-29T19:34:12.800Z,99.90
2023-03-29T19:36:41.946Z,99.90
2023-03-29T19:39:10.822Z,99.90
2023-03-29T19:41:41.796Z,99.90
2023-03-29T19:44:11.108Z,99.90
2023-03-29T19:46:52.049Z,99.90
2023-03-29T19:49:20.773Z,99.90
2023-03-29T19:51:49.481Z,99.90
2023-03-29T19:54:18.153Z,99.90
2023-03-29T19:56:50.056Z,99.90
2023-03-29T19:59:21.182Z,99.90
2023-03-29T20:01:57.005Z,99.90
2023-03-29T20:04:29.856Z,99.90
2023-03-29T20:07:00.763Z,99.90
2023-03-29T20:09:30.904Z,99.90
2023-03-29T20:12:00.991Z,99.90
2023-03-29T20:14:34.099Z,99.90
2023-03-29T20:17:04.618Z,99.90
2023-03-29T20:19:36.589Z,99.90
2023-03-29T20:22:06.100Z,99.90
2023-03-29T20:24:34.796Z,99.90
2023-03-29T20:27:04.531Z,99.90
2023-03-29T20:29:34.343Z,99.90
2023-03-29T20:32:04.636Z,99.90
2023-03-29T20:34:33.449Z,99.90
2023-03-29T20:37:02.117Z,99.90
2023-03-29T20:39:31.402Z,99.90
2023-03-29T20:42:00.636Z,99.90
2023-03-29T20:44:29.313Z,99.90
2023-03-29T20:47:03.931Z,99.90
2023-03-29T20:49:38.317Z,99.90
2023-03-29T20:52:12.714Z,99.90
2023-03-29T20:54:42.868Z,99.90
2023-03-29T20:57:16.307Z,99.90
2023-03-29T20:59:46.842Z,99.90
2023-03-29T21:02:19.013Z,99.90
2023-03-29T21:04:52.388Z,99.90
2023-03-29T21:07:22.670Z,99.90
2023-03-29T21:09:51.124Z,99.90
2023-03-29T21:12:20.254Z,99.90
2023-03-29T21:14:48.729Z,99.90
2023-03-29T21:17:17.313Z,99.90
2023-03-29T21:19:45.842Z,99.90
2023-03-29T21:22:15.912Z,99.90
2023-03-29T21:24:44.425Z,99.90
2023-03-29T21:27:12.919Z,99.90
2023-03-29T21:29:41.419Z,99.90
2023-03-29T21:32:10.851Z,99.90
2023-03-29T21:34:39.455Z,99.90
2023-03-29T21:37:08.001Z,99.90
2023-03-29T21:39:37.906Z,99.90
2023-03-29T21:42:06.829Z,99.90
2023-03-29T21:44:35.336Z,99.90
2023-03-29T21:47:03.953Z,99.90
2023-03-29T21:49:32.595Z,99.90
2023-03-29T21:52:01.047Z,99.90
2023-03-29T21:54:29.795Z,99.90
2023-03-29T21:56:59.702Z,99.90
2023-03-29T21:59:28.889Z,99.90
2023-03-29T22:01:57.592Z,99.90
2023-03-29T22:04:35.906Z,99.90
2023-03-29T22:07:05.582Z,99.90
2023-03-29T22:09:35.537Z,99.90
2023-03-29T22:12:05.777Z,99.90
2023-03-29T22:14:35.065Z,99.90
2023-03-29T22:17:05.824Z,99.90
2023-03-29T22:19:39.122Z,99.90
2023-03-29T22:22:13.528Z,99.90
2023-03-29T22:24:42.919Z,99.90
2023-03-29T22:27:13.012Z,99.90
2023-03-29T22:29:41.418Z,99.90
2023-03-29T22:32:10.028Z,99.90
2023-03-29T22:34:38.834Z,99.90
2023-03-29T22:37:07.361Z,99.90
2023-03-29T22:39:36.839Z,99.90
2023-03-29T22:42:05.633Z,99.90
2023-03-29T22:44:36.041Z,99.90
2023-03-29T22:47:04.561Z,99.90
2023-03-29T23:11:08.746Z,99.90
2023-03-29T23:13:37.246Z,99.90
2023-03-29T23:16:06.143Z,99.90
2023-03-29T23:18:37.479Z,99.90
2023-03-29T23:21:07.600Z,99.90
2023-03-29T23:23:36.976Z,99.90
2023-03-29T23:26:06.067Z,99.90
2023-03-29T23:28:35.806Z,99.90
2023-03-29T23:31:06.450Z,99.90
2023-03-29T23:33:36.524Z,99.90
2023-03-29T23:36:07.613Z,99.90
2023-03-29T23:38:37.807Z,99.90
2023-03-29T23:41:08.583Z,99.90
2023-03-29T23:43:41.239Z,99.90
2023-03-29T23:46:11.551Z,99.90
2023-03-29T23:48:39.896Z,99.90
2023-03-29T23:51:09.947Z,99.90
2023-03-29T23:53:38.419Z,99.90
2023-03-29T23:56:07.870Z,99.90
2023-03-29T23:58:38.952Z,99.90
